Time;durP1;ratioP1;P1;durP2;ratioP2;P2;SDS_P1;SDS_P2;PMS_P1;PMS_P2;Temp;Humidity;BMP_temperature;BMP_pressure;BME280_temperature;BME280_humidity;BME280_pressure;Samples;Min_cycle;Max_cycle;Signal;HPM_P1;HPM_P2
2021/04/12 00:01:49;;;;;;;2.00;0.40;;;12.50;55.10;;;;;;5095645;28;20131;-73
2021/04/12 00:04:38;;;;;;;2.00;0.47;;;12.40;55.20;;;;;;5094704;28;20044;-73
2021/04/12 00:07:16;;;;;;;2.45;0.30;;;12.50;55.20;;;;;;5094611;28;20462;-71
2021/04/12 00:10:14;;;;;;;1.52;0.30;;;12.40;55.20;;;;;;5095061;28;20074;-73
2021/04/12 00:12:53;;;;;;;2.95;0.47;;;12.40;55.20;;;;;;5005731;28;20058;-73
2021/04/12 00:15:22;;;;;;;1.02;0.30;;;12.40;55.10;;;;;;5094849;28;20044;-72
2021/04/12 00:17:50;;;;;;;0.60;0.30;;;12.40;55.70;;;;;;5095379;28;20093;-72
2021/04/12 00:20:21;;;;;;;2.10;0.40;;;12.40;54.90;;;;;;5094664;28;20431;-72
2021/04/12 00:22:58;;;;;;;0.77;0.30;;;12.40;54.90;;;;;;5094945;28;20040;-74
2021/04/12 00:25:32;;;;;;;1.75;0.30;;;12.40;54.90;;;;;;5094606;28;20040;-72
2021/04/12 00:28:04;;;;;;;2.47;0.43;;;12.40;54.90;;;;;;5095018;28;20044;-74
2021/04/12 00:30:59;;;;;;;2.15;0.30;;;12.40;54.80;;;;;;5095856;28;20130;-72
2021/04/12 00:33:35;;;;;;;2.15;0.50;;;12.40;54.70;;;;;;5094814;28;20108;-72
2021/04/12 00:36:39;;;;;;;2.00;0.25;;;12.40;54.70;;;;;;5094421;28;20415;-71
2021/04/12 00:39:20;;;;;;;1.27;0.28;;;12.40;54.70;;;;;;5061663;28;20059;-73
2021/04/12 00:42:07;;;;;;;1.90;0.35;;;12.40;54.70;;;;;;5098948;28;20321;-72
2021/04/12 00:44:36;;;;;;;1.70;0.40;;;12.40;54.70;;;;;;5098718;28;20051;-73
2021/04/12 00:47:35;;;;;;;2.40;0.35;;;12.40;54.70;;;;;;5080532;28;20040;-72
2021/04/12 00:50:19;;;;;;;4.22;0.55;;;12.40;54.60;;;;;;5098335;28;20371;-72
2021/04/12 00:53:01;;;;;;;2.80;0.43;;;12.40;54.70;;;;;;5099181;28;20040;-71
2021/04/12 00:55:35;;;;;;;2.50;0.40;;;12.40;54.70;;;;;;5098543;28;20400;-71
2021/04/12 00:58:10;;;;;;;1.85;0.20;;;12.40;54.70;;;;;;5098036;28;20044;-72
2021/04/12 01:00:46;;;;;;;1.58;0.30;;;12.40;54.60;;;;;;5098551;28;20048;-73
2021/04/12 01:03:39;;;;;;;2.10;0.40;;;12.40;55.30;;;;;;5098386;28;20040;-74
2021/04/12 01:06:28;;;;;;;1.33;0.40;;;12.40;54.70;;;;;;5098890;28;20047;-73
2021/04/12 01:09:06;;;;;;;1.42;0.30;;;12.40;54.60;;;;;;5098462;28;20494;-74
2021/04/12 01:12:03;;;;;;;1.10;0.22;;;12.40;54.70;;;;;;5098717;28;20483;-74
2021/04/12 01:14:56;;;;;;;2.15;0.38;;;12.30;54.60;;;;;;5098191;28;20036;-73
2021/04/12 01:17:55;;;;;;;1.77;0.30;;;12.30;54.60;;;;;;5097794;28;20135;-73
2021/04/12 01:20:36;;;;;;;0.98;0.20;;;12.30;54.70;;;;;;5098416;28;20358;-72
2021/04/12 01:23:37;;;;;;;3.78;0.45;;;12.30;54.60;;;;;;5098182;28;20059;-73
2021/04/12 01:26:06;;;;;;;1.35;0.28;;;12.30;54.60;;;;;;5097902;28;20040;-74
2021/04/12 01:29:00;;;;;;;1.85;0.30;;;12.30;54.60;;;;;;5097410;28;20055;-74
2021/04/12 01:32:00;;;;;;;1.55;0.20;;;12.40;54.60;;;;;;5080697;28;20039;-71
2021/04/12 01:34:35;;;;;;;0.60;0.20;;;12.30;54.50;;;;;;5098256;28;20041;-71
2021/04/12 01:37:16;;;;;;;1.88;0.20;;;12.30;54.50;;;;;;5097482;28;20042;-72
2021/04/12 01:39:51;;;;;;;0.88;0.20;;;12.30;54.40;;;;;;5097439;28;20040;-72
2021/04/12 01:42:36;;;;;;;1.88;0.30;;;12.30;54.50;;;;;;5080198;28;20036;-74
2021/04/12 01:45:46;;;;;;;1.10;0.35;;;12.30;54.50;;;;;;5097574;28;20112;-72
2021/04/12 01:48:24;;;;;;;2.97;0.20;;;12.30;54.60;;;;;;5058647;28;20052;-73
2021/04/12 01:51:02;;;;;;;1.15;0.30;;;12.30;54.60;;;;;;5096793;28;20457;-73
2021/04/12 01:53:53;;;;;;;1.48;0.30;;;12.30;54.60;;;;;;5097368;28;20036;-73
2021/04/12 01:56:37;;;;;;;2.50;0.40;;;12.30;54.60;;;;;;5079986;28;20110;-72
2021/04/12 01:59:11;;;;;;;1.38;0.30;;;12.30;54.50;;;;;;5097846;28;20036;-73
2021/04/12 02:01:58;;;;;;;1.33;0.40;;;12.30;54.50;;;;;;5097078;28;20052;-73
2021/04/12 02:04:44;;;;;;;0.85;0.20;;;12.30;54.50;;;;;;5096887;28;20381;-74
2021/04/12 02:07:27;;;;;;;1.92;0.35;;;12.30;54.50;;;;;;5097190;28;20032;-72
2021/04/12 02:10:04;;;;;;;1.92;0.30;;;12.30;54.50;;;;;;5097153;28;20044;-72
2021/04/12 02:12:49;;;;;;;2.45;0.30;;;12.30;54.50;;;;;;5096808;28;20458;-72
2021/04/12 02:15:38;;;;;;;2.00;0.38;;;12.30;54.40;;;;;;5096720;28;20040;-71
2021/04/12 02:18:23;;;;;;;2.50;0.60;;;12.30;54.40;;;;;;5097131;28;20451;-73
2021/04/12 02:21:21;;;;;;;1.52;0.45;;;12.30;54.40;;;;;;5097072;28;20333;-73
2021/04/12 02:24:27;;;;;;;1.30;0.60;;;12.30;54.30;;;;;;5096715;28;20040;-72
2021/04/12 02:27:00;;;;;;;1.48;0.40;;;12.20;54.20;;;;;;5058649;28;20056;-72
2021/04/12 02:29:47;;;;;;;1.13;0.40;;;12.20;54.80;;;;;;5097305;28;20331;-72
2021/04/12 02:32:36;;;;;;;2.40;0.30;;;12.20;54.10;;;;;;5096890;28;20439;-72
2021/04/12 02:35:25;;;;;;;1.98;0.30;;;12.20;54.10;;;;;;5097285;28;20435;-73
2021/04/12 02:38:19;;;;;;;2.05;0.35;;;12.20;54.20;;;;;;5045271;28;20047;-72
2021/04/12 02:41:10;;;;;;;0.63;0.10;;;12.20;54.10;;;;;;5096799;28;20119;-74
2021/04/12 02:44:06;;;;;;;1.70;0.50;;;12.20;54.10;;;;;;5096269;28;20031;-72
2021/04/12 02:46:51;;;;;;;3.08;0.65;;;12.20;54.10;;;;;;5079021;28;20359;-72
2021/04/12 02:49:25;;;;;;;1.38;0.30;;;12.20;54.10;;;;;;5096354;28;20036;-74
2021/04/12 02:52:27;;;;;;;0.95;0.20;;;12.20;54.10;;;;;;5096497;28;20043;-72
2021/04/12 02:55:24;;;;;;;1.65;0.50;;;12.20;54.10;;;;;;5096718;28;20189;-72
2021/04/12 02:58:53;;;;;;;0.70;0.30;;;12.20;54.20;;;;;;5096725;28;20040;-72
2021/04/12 03:01:42;;;;;;;1.70;0.30;;;12.20;54.20;;;;;;4978494;28;20058;-73
2021/04/12 03:04:38;;;;;;;1.67;0.20;;;12.20;54.20;;;;;;5091841;28;20051;-72
2021/04/12 03:07:41;;;;;;;1.55;0.10;;;12.20;54.20;;;;;;5095592;28;20473;-72
2021/04/12 03:10:40;;;;;;;1.08;0.20;;;12.20;54.10;;;;;;5096079;28;20044;-75
2021/04/12 03:13:43;;;;;;;1.33;0.20;;;12.20;54.10;;;;;;5096429;28;20044;-72
2021/04/12 03:16:14;;;;;;;2.35;0.30;;;12.20;54.10;;;;;;5095709;28;20071;-72
2021/04/12 03:19:01;;;;;;;0.40;0.15;;;12.20;54.10;;;;;;5095606;28;20093;-72
2021/04/12 03:21:33;;;;;;;0.75;0.20;;;12.20;54.10;;;;;;5096158;28;20514;-73
2021/04/12 03:24:22;;;;;;;4.07;0.73;;;12.20;54.10;;;;;;5095726;28;20036;-72
2021/04/12 03:27:00;;;;;;;1.88;0.20;;;12.20;54.10;;;;;;5095559;28;20046;-72
2021/04/12 03:29:33;;;;;;;0.90;0.20;;;12.20;54.10;;;;;;5095549;28;20351;-73
2021/04/12 03:32:42;;;;;;;1.20;0.40;;;12.20;54.10;;;;;;5095956;28;20327;-73
2021/04/12 03:35:13;;;;;;;1.25;0.20;;;12.20;54.10;;;;;;5095382;28;20035;-74
2021/04/12 03:38:07;;;;;;;1.75;0.35;;;12.20;54.10;;;;;;5095219;28;20047;-72
2021/04/12 03:40:35;;;;;;;1.27;0.20;;;12.20;54.00;;;;;;5095844;28;20296;-72
2021/04/12 03:43:21;;;;;;;1.35;0.20;;;12.20;54.00;;;;;;5095737;28;20115;-74
2021/04/12 03:46:08;;;;;;;0.40;0.15;;;12.20;54.00;;;;;;5095272;28;20104;-71
2021/04/12 03:49:05;;;;;;;1.50;0.20;;;12.20;54.00;;;;;;5095265;28;20050;-72
2021/04/12 03:51:55;;;;;;;1.63;0.10;;;12.20;53.90;;;;;;5095365;28;20047;-72
2021/04/12 03:54:53;;;;;;;1.83;0.45;;;12.20;53.90;;;;;;5095366;28;20324;-72
2021/04/12 03:57:41;;;;;;;1.33;0.20;;;12.20;53.90;;;;;;5077100;28;20131;-73
2021/04/12 04:00:27;;;;;;;0.60;0.10;;;12.10;53.90;;;;;;5095704;28;20161;-73
2021/04/12 04:03:30;;;;;;;1.63;0.10;;;12.10;53.80;;;;;;5094842;28;20051;-73
2021/04/12 04:06:18;;;;;;;0.60;0.25;;;12.10;53.80;;;;;;5095399;28;20036;-72
2021/04/12 04:09:21;;;;;;;2.72;0.30;;;12.10;53.80;;;;;;5094815;28;20048;-71
2021/04/12 04:12:26;;;;;;;1.08;0.17;;;12.10;53.80;;;;;;5095009;28;20116;-72
2021/04/12 04:15:13;;;;;;;2.85;0.30;;;12.20;53.80;;;;;;5095164;28;20050;-72
2021/04/12 04:18:19;;;;;;;0.95;0.15;;;12.20;53.70;;;;;;5094542;28;20371;-73
2021/04/12 04:21:17;;;;;;;0.47;0.10;;;12.10;53.70;;;;;;5077169;28;20051;-71
2021/04/12 04:24:08;;;;;;;0.77;0.10;;;12.10;53.60;;;;;;5048925;28;20170;-71
2021/04/12 04:27:13;;;;;;;1.65;0.20;;;12.10;53.60;;;;;;5094831;28;20465;-72
2021/04/12 04:30:13;;;;;;;0.98;0.20;;;12.10;53.50;;;;;;5094706;28;20036;-72
2021/04/12 04:33:13;;;;;;;0.22;0.03;;;12.20;53.50;;;;;;5095345;28;20054;-71
2021/04/12 04:36:10;;;;;;;1.70;0.15;;;12.10;53.50;;;;;;5094783;28;20040;-71
2021/04/12 04:39:06;;;;;;;1.55;0.22;;;12.10;53.50;;;;;;5094565;28;20036;-72
2021/04/12 04:41:54;;;;;;;0.40;0.10;;;12.10;53.50;;;;;;5095260;28;20439;-73
2021/04/12 04:44:41;;;;;;;2.28;0.40;;;12.10;53.50;;;;;;5095219;28;20068;-72
2021/04/12 04:47:35;;;;;;;0.60;0.10;;;12.10;53.50;;;;;;5094499;28;20070;-72
2021/04/12 04:50:20;;;;;;;;;;;12.10;53.50;;;;;;5085908;28;20476;-72
2021/04/12 04:53:00;;;;;;;0.63;0.05;;;12.10;53.60;;;;;;5094806;28;19977;-73
2021/04/12 04:55:45;;;;;;;2.47;0.20;;;12.00;53.60;;;;;;5094635;28;20047;-74
2021/04/12 04:58:31;;;;;;;0.47;0.10;;;12.10;53.60;;;;;;5094029;28;20418;-71
2021/04/12 05:01:03;;;;;;;0.40;0.10;;;12.10;53.60;;;;;;5094599;28;20047;-71
2021/04/12 05:03:50;;;;;;;1.35;0.20;;;12.10;53.60;;;;;;5094879;28;20063;-71
2021/04/12 05:06:53;;;;;;;1.52;0.20;;;12.10;53.50;;;;;;5094491;28;20093;-74
2021/04/12 05:09:30;;;;;;;1.83;0.20;;;12.10;53.50;;;;;;5094257;28;20122;-73
2021/04/12 05:12:21;;;;;;;1.52;0.30;;;12.10;53.50;;;;;;5094406;28;20040;-71
2021/04/12 05:15:16;;;;;;;0.95;0.40;;;12.00;53.40;;;;;;5094773;28;20051;-72
2021/04/12 05:18:13;;;;;;;2.72;0.57;;;12.00;53.50;;;;;;5094346;28;20040;-75
2021/04/12 05:21:04;;;;;;;0.43;0.20;;;12.10;53.50;;;;;;5094271;28;20165;-72
2021/04/12 05:24:02;;;;;;;1.77;0.20;;;12.00;53.40;;;;;;5094945;28;20075;-73
2021/04/12 05:26:36;;;;;;;0.63;0.15;;;12.10;53.40;;;;;;5097908;28;20096;-71
2021/04/12 05:29:11;;;;;;;0.70;0.10;;;12.00;53.30;;;;;;5097732;28;20040;-72
2021/04/12 05:31:46;;;;;;;0.98;0.10;;;12.10;53.30;;;;;;5097716;28;20415;-72
2021/04/12 05:34:27;;;;;;;0.65;0.10;;;12.10;53.30;;;;;;5098430;28;20385;-72
2021/04/12 05:37:06;;;;;;;0.77;0.20;;;12.00;53.30;;;;;;5097667;28;20040;-71
2021/04/12 05:40:02;;;;;;;1.98;0.20;;;12.00;53.30;;;;;;5097433;28;20366;-72
2021/04/12 05:43:00;;;;;;;1.45;0.30;;;12.00;53.30;;;;;;5097687;28;20032;-73
2021/04/12 05:45:56;;;;;;;0.85;0.10;;;12.00;53.30;;;;;;5097813;28;20127;-71
2021/04/12 05:48:37;;;;;;;0.63;0.10;;;12.10;53.40;;;;;;5079664;28;20075;-72
2021/04/12 05:51:14;;;;;;;0.52;0.13;;;12.10;53.30;;;;;;5098106;28;20047;-71
2021/04/12 05:54:05;;;;;;;1.30;0.28;;;12.10;53.30;;;;;;5097335;28;20035;-72
2021/04/12 05:56:55;;;;;;;0.63;0.20;;;12.00;53.20;;;;;;5097475;28;20488;-73
2021/04/12 05:59:42;;;;;;;1.52;0.43;;;12.00;53.30;;;;;;5096985;28;20368;-72
2021/04/12 06:02:17;;;;;;;1.25;0.30;;;12.00;53.30;;;;;;5097118;28;20434;-72
2021/04/12 06:04:56;;;;;;;1.48;0.40;;;12.00;53.40;;;;;;5097488;28;20454;-73
2021/04/12 06:07:25;;;;;;;2.28;0.38;;;12.00;53.30;;;;;;5097011;28;20370;-72
2021/04/12 06:10:21;;;;;;;1.50;0.38;;;12.00;53.30;;;;;;5097217;28;20043;-72
2021/04/12 06:13:26;;;;;;;0.88;0.30;;;12.00;53.20;;;;;;5097471;28;20040;-73
2021/04/12 06:16:04;;;;;;;1.50;0.30;;;12.00;53.20;;;;;;5097405;28;20347;-73
2021/04/12 06:18:51;;;;;;;1.08;0.30;;;12.00;53.30;;;;;;5096383;28;20040;-71
2021/04/12 06:21:34;;;;;;;2.70;0.20;;;12.00;53.20;;;;;;5097089;28;20051;-73
2021/04/12 06:24:05;;;;;;;1.35;0.17;;;12.00;53.30;;;;;;5097117;28;20040;-71
2021/04/12 06:26:43;;;;;;;1.20;0.20;;;12.00;53.30;;;;;;5096837;28;20126;-71
2021/04/12 06:29:45;;;;;;;0.80;0.20;;;12.00;53.20;;;;;;5096020;28;20081;-73
2021/04/12 06:32:32;;;;;;;0.95;0.20;;;12.00;53.30;;;;;;5043998;28;20056;-72
2021/04/12 06:35:26;;;;;;;0.88;0.20;;;12.00;53.30;;;;;;5096529;28;20039;-72
2021/04/12 06:38:19;;;;;;;0.50;0.10;;;12.00;53.20;;;;;;5096677;28;20124;-73
2021/04/12 06:41:18;;;;;;;0.45;0.10;;;12.00;53.10;;;;;;5096354;28;20043;-73
2021/04/12 06:44:22;;;;;;;3.03;0.40;;;12.00;53.10;;;;;;5096388;28;20048;-72
2021/04/12 06:47:20;;;;;;;0.93;0.10;;;12.00;53.10;;;;;;5096678;28;20039;-72
2021/04/12 06:49:58;;;;;;;1.27;0.22;;;12.00;53.10;;;;;;5096041;28;20036;-73
2021/04/12 06:52:48;;;;;;;1.45;0.20;;;12.00;53.20;;;;;;5096363;28;20099;-72
2021/04/12 06:55:18;;;;;;;1.40;0.22;;;12.00;53.20;;;;;;5096434;28;20090;-74
2021/04/12 06:58:08;;;;;;;0.55;0.22;;;12.00;53.20;;;;;;5096432;28;20060;-72
2021/04/12 07:00:37;;;;;;;0.93;0.20;;;12.00;53.10;;;;;;5096142;28;20114;-71
2021/04/12 07:03:11;;;;;;;1.52;0.40;;;12.00;53.20;;;;;;5096533;28;20473;-73
2021/04/12 07:06:15;;;;;;;0.80;0.20;;;12.10;53.20;;;;;;5096199;28;20407;-71
2021/04/12 07:08:56;;;;;;;1.30;0.20;;;12.00;53.10;;;;;;5006914;28;20374;-71
2021/04/12 07:11:59;;;;;;;0.57;0.17;;;12.10;53.10;;;;;;5095795;28;20435;-72
2021/04/12 07:15:05;;;;;;;1.40;0.20;;;12.10;53.20;;;;;;5095938;28;20039;-71
2021/04/12 07:18:04;;;;;;;2.15;0.40;;;12.00;53.20;;;;;;5096431;28;20420;-71
2021/04/12 07:21:07;;;;;;;1.92;0.30;;;12.10;53.40;;;;;;5095811;28;20040;-72
2021/04/12 07:23:39;;;;;;;2.30;0.88;;;12.10;53.60;;;;;;5095719;28;20067;-71
2021/04/12 07:26:24;;;;;;;1.90;0.30;;;12.10;53.70;;;;;;5096315;28;20056;-73
2021/04/12 07:29:17;;;;;;;1.02;0.30;;;12.10;53.60;;;;;;5095481;28;20059;-72
2021/04/12 07:32:20;;;;;;;1.02;0.10;;;12.10;54.20;;;;;;5095551;28;20032;-71
2021/04/12 07:35:18;;;;;;;1.02;0.20;;;12.10;54.00;;;;;;5095755;28;20123;-72
2021/04/12 07:37:49;;;;;;;1.80;0.20;;;12.10;54.00;;;;;;5095875;28;20044;-73
2021/04/12 07:40:53;;;;;;;1.00;0.28;;;12.10;53.90;;;;;;5095218;28;20347;-71
2021/04/12 07:43:53;;;;;;;1.98;0.30;;;12.10;53.80;;;;;;5095734;28;20035;-73
2021/04/12 07:46:54;;;;;;;1.25;0.20;;;12.10;53.80;;;;;;5095071;28;20039;-73
2021/04/12 07:49:57;;;;;;;1.20;0.32;;;12.10;53.70;;;;;;5094925;28;20040;-74
2021/04/12 07:52:55;;;;;;;1.63;0.32;;;12.10;53.90;;;;;;5095886;28;20351;-72
2021/04/12 07:55:48;;;;;;;1.80;0.10;;;12.10;54.00;;;;;;5092766;28;20044;-73
2021/04/12 07:58:51;;;;;;;1.50;0.47;;;12.10;54.00;;;;;;5077362;28;20134;-72
2021/04/12 08:01:50;;;;;;;1.48;0.25;;;12.10;54.20;;;;;;5094487;28;20416;-73
2021/04/12 08:04:43;;;;;;;1.10;0.40;;;12.10;54.20;;;;;;5061653;28;20059;-72
2021/04/12 08:07:46;;;;;;;2.20;0.30;;;12.20;54.20;;;;;;5094775;28;20062;-71
2021/04/12 08:10:49;;;;;;;1.48;0.20;;;12.20;54.40;;;;;;5095094;28;20040;-72
2021/04/12 08:13:56;;;;;;;1.65;0.32;;;12.20;54.30;;;;;;5094891;28;20120;-73
2021/04/12 08:16:59;;;;;;;2.28;0.13;;;12.20;54.10;;;;;;5056673;28;20048;-73
2021/04/12 08:20:02;;;;;;;1.73;0.32;;;12.20;54.10;;;;;;5094643;28;20067;-73
2021/04/12 08:22:47;;;;;;;1.17;0.20;;;12.20;54.10;;;;;;5077151;28;20044;-72
2021/04/12 08:25:28;;;;;;;0.88;0.20;;;12.30;54.10;;;;;;5095125;28;20058;-73
2021/04/12 08:28:23;;;;;;;0.30;0.20;;;12.30;53.90;;;;;;5094887;28;20120;-70
2021/04/12 08:31:23;;;;;;;1.02;0.20;;;12.30;53.90;;;;;;5094929;28;20458;-72
2021/04/12 08:34:20;;;;;;;1.83;0.10;;;12.30;53.90;;;;;;5094637;28;20040;-71
2021/04/12 08:37:22;;;;;;;1.65;0.30;;;12.40;54.00;;;;;;5095513;28;20101;-72
2021/04/12 08:39:58;;;;;;;1.27;0.20;;;12.30;53.90;;;;;;5095275;28;20058;-72
2021/04/12 08:42:32;;;;;;;0.65;0.10;;;12.40;53.70;;;;;;5094532;28;20044;-73
2021/04/12 08:45:20;;;;;;;1.70;0.20;;;12.40;53.60;;;;;;5095062;28;20062;-71
2021/04/12 08:48:00;;;;;;;2.67;0.30;;;12.40;53.60;;;;;;5094789;28;20032;-73
2021/04/12 08:50:38;;;;;;;1.05;0.40;;;12.40;53.60;;;;;;5094744;28;20055;-71
2021/04/12 08:53:31;;;;;;;0.68;0.13;;;12.40;53.60;;;;;;5094272;28;20151;-72
2021/04/12 08:56:24;;;;;;;0.60;0.10;;;12.40;53.60;;;;;;5094718;28;20039;-71
2021/04/12 08:59:17;;;;;;;1.15;0.20;;;12.40;53.40;;;;;;5096544;28;20294;-73
2021/04/12 09:02:20;;;;;;;1.88;0.30;;;12.50;53.60;;;;;;5098463;28;20447;-74
2021/04/12 09:05:11;;;;;;;1.17;0.30;;;12.50;53.40;;;;;;5098677;28;20047;-72
2021/04/12 09:08:05;;;;;;;1.17;0.20;;;12.50;53.20;;;;;;5098019;28;20123;-72
2021/04/12 09:10:36;;;;;;;1.60;0.17;;;12.50;53.10;;;;;;5098226;28;20039;-73
2021/04/12 09:13:40;;;;;;;1.90;0.22;;;12.50;53.00;;;;;;5098421;28;20079;-73
2021/04/12 09:16:17;;;;;;;1.80;0.30;;;12.50;53.10;;;;;;5098161;28;20035;-74
2021/04/12 09:19:01;;;;;;;1.08;0.10;;;12.50;52.90;;;;;;5097794;28;20035;-72
2021/04/12 09:22:02;;;;;;;2.17;0.30;;;12.50;53.00;;;;;;5098214;28;20051;-73
2021/04/12 09:24:55;;;;;;;1.63;0.15;;;12.50;52.90;;;;;;5098024;28;20040;-74
2021/04/12 09:27:43;;;;;;;1.08;0.28;;;12.50;53.00;;;;;;5097979;28;20093;-72
2021/04/12 09:30:18;;;;;;;1.58;0.20;;;12.50;53.00;;;;;;5097805;28;20089;-73
2021/04/12 09:32:44;;;;;;;1.40;0.32;;;12.50;53.00;;;;;;5097771;28;20068;-73
2021/04/12 09:35:26;;;;;;;1.98;0.20;;;12.50;53.00;;;;;;5098286;28;20079;-73
2021/04/12 09:38:10;;;;;;;1.02;0.20;;;12.50;53.10;;;;;;5097618;28;20043;-73
2021/04/12 09:40:59;;;;;;;1.98;0.20;;;12.50;53.30;;;;;;5097598;28;20036;-72
2021/04/12 09:43:52;;;;;;;1.35;0.40;;;12.50;53.60;;;;;;5084590;28;20094;-72
2021/04/12 09:46:52;;;;;;;1.70;0.20;;;12.50;53.40;;;;;;5097560;28;20044;-73
2021/04/12 09:49:42;;;;;;;0.77;0.20;;;12.50;53.50;;;;;;5097573;28;20377;-74
2021/04/12 09:52:31;;;;;;;1.85;0.35;;;12.50;53.50;;;;;;5097330;28;20064;-73
2021/04/12 09:55:28;;;;;;;1.25;0.20;;;12.50;53.40;;;;;;5097627;28;20052;-74
2021/04/12 09:58:14;;;;;;;1.95;0.20;;;12.50;53.60;;;;;;5097945;28;20051;-73
2021/04/12 10:01:09;;;;;;;0.90;0.10;;;12.50;53.50;;;;;;5097225;28;20087;-73
2021/04/12 10:03:57;;;;;;;2.28;0.63;;;12.50;54.10;;;;;;5097322;28;20040;-73
2021/04/12 10:06:42;;;;;;;0.77;0.20;;;12.50;53.60;;;;;;5097281;28;20046;-73
2021/04/12 10:09:32;;;;;;;1.63;0.20;;;12.50;53.60;;;;;;5097194;28;20036;-73
2021/04/12 10:12:19;;;;;;;1.33;0.40;;;12.50;53.70;;;;;;5096627;28;20075;-73
2021/04/12 10:14:49;;;;;;;1.20;0.20;;;12.50;53.70;;;;;;5097118;28;20056;-72
2021/04/12 10:17:22;;;;;;;0.68;0.15;;;12.50;53.70;;;;;;5097408;28;20040;-73
2021/04/12 10:19:58;;;;;;;1.52;0.25;;;12.50;53.70;;;;;;5096719;28;20101;-74
2021/04/12 10:22:42;;;;;;;1.00;0.30;;;12.50;53.70;;;;;;5096571;28;20118;-75
2021/04/12 10:25:15;;;;;;;0.73;0.28;;;12.50;53.70;;;;;;5097321;28;20032;-72
2021/04/12 10:27:51;;;;;;;1.67;0.13;;;12.50;53.70;;;;;;5097331;28;20399;-72
2021/04/12 10:30:33;;;;;;;0.82;0.20;;;12.50;53.70;;;;;;5096550;28;20064;-72
2021/04/12 10:33:03;;;;;;;1.08;0.10;;;12.50;53.70;;;;;;5096482;28;20458;-74
2021/04/12 10:35:45;;;;;;;0.47;0.10;;;12.50;53.70;;;;;;5097504;28;20469;-72
2021/04/12 10:38:26;;;;;;;2.90;0.40;;;12.50;53.70;;;;;;5096608;28;20031;-72
2021/04/12 10:41:16;;;;;;;1.65;0.15;;;12.50;53.70;;;;;;5096080;28;20050;-73
2021/04/12 10:43:52;;;;;;;1.02;0.17;;;12.50;53.70;;;;;;5096636;28;20036;-73
2021/04/12 10:46:53;;;;;;;2.47;0.30;;;12.50;53.60;;;;;;5096290;28;20443;-73
2021/04/12 10:49:53;;;;;;;0.77;0.15;;;12.50;53.60;;;;;;5057527;28;20052;-73
2021/04/12 10:52:29;;;;;;;1.23;0.17;;;12.60;53.70;;;;;;5096088;28;20400;-75
2021/04/12 10:55:07;;;;;;;1.17;0.10;;;12.50;53.60;;;;;;5096227;28;20140;-73
2021/04/12 10:57:36;;;;;;;0.95;0.20;;;12.60;53.60;;;;;;5096640;28;20040;-74
2021/04/12 11:00:16;;;;;;;1.42;0.20;;;12.50;53.60;;;;;;5096259;28;20036;-72
2021/04/12 11:03:12;;;;;;;1.17;0.13;;;12.50;53.60;;;;;;5096216;28;20048;-74
2021/04/12 11:05:40;;;;;;;1.50;0.30;;;12.50;53.70;;;;;;5096138;28;20050;-73
2021/04/12 11:08:26;;;;;;;1.10;0.30;;;12.50;53.60;;;;;;5095802;28;20115;-73
2021/04/12 11:11:31;;;;;;;1.00;0.28;;;12.60;53.70;;;;;;5095577;28;20122;-73
2021/04/12 11:14:22;;;;;;;;;;;12.60;53.70;;;;;;5095819;28;20048;-73
2021/04/12 11:16:59;;;;;;;1.25;0.38;;;12.50;53.80;;;;;;5096362;28;19965;-73
2021/04/12 11:19:54;;;;;;;1.40;0.30;;;12.50;53.70;;;;;;5078114;28;20044;-73
2021/04/12 11:22:38;;;;;;;0.28;0.10;;;12.60;53.70;;;;;;5095456;28;20066;-73
2021/04/12 11:25:15;;;;;;;0.88;0.20;;;12.50;53.60;;;;;;5095688;28;20455;-75
2021/04/12 11:28:08;;;;;;;1.27;0.30;;;12.50;53.60;;;;;;5096182;28;20058;-73
2021/04/12 11:30:52;;;;;;;1.75;0.45;;;12.50;53.60;;;;;;5095656;28;20051;-73
2021/04/12 11:33:34;;;;;;;1.33;0.22;;;12.60;53.60;;;;;;5095759;28;20071;-73
2021/04/12 11:36:47;;;;;;;2.10;0.30;;;12.60;53.60;;;;;;5095548;28;20063;-73
2021/04/12 11:39:24;;;;;;;1.40;0.20;;;12.60;53.70;;;;;;4994303;28;20050;-72
2021/04/12 11:42:01;;;;;;;1.02;0.20;;;12.50;53.60;;;;;;4994269;28;20046;-72
2021/04/12 11:44:37;;;;;;;0.75;0.20;;;12.60;53.50;;;;;;5063596;28;20048;-75
2021/04/12 11:47:34;;;;;;;1.75;0.13;;;12.60;53.60;;;;;;5095589;28;20430;-72
2021/04/12 11:50:26;;;;;;;1.00;0.20;;;12.60;53.60;;;;;;5095545;28;20059;-74
2021/04/12 11:53:14;;;;;;;0.77;0.13;;;12.60;53.70;;;;;;5095363;28;20047;-75
2021/04/12 11:56:17;;;;;;;0.73;0.15;;;12.60;53.60;;;;;;5095395;28;20043;-73
2021/04/12 11:58:50;;;;;;;0.60;0.17;;;12.60;53.60;;;;;;5095060;28;20047;-73
2021/04/12 12:01:28;;;;;;;1.33;0.50;;;12.60;53.50;;;;;;5095825;28;20039;-73
2021/04/12 12:04:13;;;;;;;1.05;0.20;;;12.60;53.50;;;;;;5095246;28;20044;-74
2021/04/12 12:06:58;;;;;;;1.92;0.30;;;12.60;53.60;;;;;;5094965;28;20047;-72
2021/04/12 12:09:35;;;;;;;1.08;0.10;;;12.60;53.50;;;;;;5095301;28;20432;-74
2021/04/12 12:12:20;;;;;;;0.93;0.20;;;12.60;53.40;;;;;;5095275;28;20036;-73
2021/04/12 12:14:52;;;;;;;2.15;0.25;;;12.60;53.40;;;;;;5094941;28;20526;-73
2021/04/12 12:17:22;;;;;;;2.35;0.30;;;12.60;53.30;;;;;;5095199;28;20051;-74
2021/04/12 12:19:53;;;;;;;1.13;0.13;;;12.60;53.20;;;;;;5094945;28;20044;-75
2021/04/12 12:22:18;;;;;;;0.47;0.10;;;12.60;53.20;;;;;;5095250;28;20447;-73
2021/04/12 12:24:51;;;;;;;0.77;0.20;;;12.60;53.20;;;;;;5095002;28;20036;-73
2021/04/12 12:27:36;;;;;;;1.60;0.15;;;12.60;53.10;;;;;;5094995;28;20131;-73
2021/04/12 12:30:27;;;;;;;1.65;0.10;;;12.60;53.10;;;;;;5094833;28;20032;-75
2021/04/12 12:32:59;;;;;;;0.60;0.13;;;12.60;53.20;;;;;;5095037;28;20118;-73
2021/04/12 12:35:33;;;;;;;0.98;0.20;;;12.60;53.20;;;;;;5080728;28;20412;-75
2021/04/12 12:38:27;;;;;;;3.83;0.67;;;12.60;53.20;;;;;;5099116;28;20354;-73
2021/04/12 12:40:57;;;;;;;1.30;0.22;;;12.60;53.30;;;;;;5099374;28;20047;-72
2021/04/12 12:43:33;;;;;;;1.13;0.10;;;12.60;53.20;;;;;;5098909;28;20128;-73
2021/04/12 12:46:22;;;;;;;0.95;0.30;;;12.60;53.20;;;;;;5098670;28;20089;-73
2021/04/12 12:48:57;;;;;;;1.63;0.22;;;12.60;53.20;;;;;;5098837;28;20446;-74
2021/04/12 12:51:40;;;;;;;0.98;0.20;;;12.60;53.20;;;;;;5098549;28;20122;-73
2021/04/12 12:54:31;;;;;;;1.58;0.10;;;12.60;53.20;;;;;;5098708;28;20446;-72
2021/04/12 12:57:26;;;;;;;2.30;0.40;;;12.60;53.20;;;;;;5085487;28;20052;-73
2021/04/12 12:59:58;;;;;;;0.57;0.10;;;12.60;53.30;;;;;;5062177;28;20139;-73
2021/04/12 13:02:26;;;;;;;0.52;0.10;;;12.60;53.30;;;;;;5098313;28;20229;-73
2021/04/12 13:05:11;;;;;;;1.80;0.30;;;12.60;53.30;;;;;;5098395;28;20391;-73
2021/04/12 13:07:38;;;;;;;2.15;0.10;;;12.60;53.30;;;;;;5098800;28;20431;-74
2021/04/12 13:10:07;;;;;;;0.50;0.20;;;12.70;53.40;;;;;;5098642;28;20478;-73
2021/04/12 13:12:37;;;;;;;0.70;0.10;;;12.70;53.40;;;;;;5097982;28;20349;-73
2021/04/12 13:15:30;;;;;;;0.70;0.10;;;12.70;53.40;;;;;;5098272;28;20040;-73
2021/04/12 13:18:20;;;;;;;0.20;0.00;;;12.70;53.40;;;;;;5098618;28;20504;-74
2021/04/12 13:21:05;;;;;;;0.68;0.10;;;12.60;53.40;;;;;;5098023;28;20058;-74
2021/04/12 13:23:43;;;;;;;1.00;0.13;;;12.70;53.40;;;;;;5097608;28;20412;-73
2021/04/12 13:26:20;;;;;;;1.85;0.22;;;12.60;53.40;;;;;;5098157;28;20052;-74
2021/04/12 13:28:47;;;;;;;1.13;0.30;;;12.60;53.40;;;;;;5098713;28;20110;-73
2021/04/12 13:31:30;;;;;;;0.77;0.20;;;12.60;53.40;;;;;;5098202;28;20074;-74
2021/04/12 13:34:04;;;;;;;0.88;0.13;;;12.60;53.40;;;;;;5097834;28;20044;-75
2021/04/12 13:36:38;;;;;;;0.80;0.30;;;12.60;53.40;;;;;;5097969;28;20068;-72
2021/04/12 13:39:29;;;;;;;;;;;12.70;53.50;;;;;;5098639;28;20036;-75
2021/04/12 13:41:56;;;;;;;2.03;0.35;;;12.60;53.50;;;;;;5097630;28;20287;-73
2021/04/12 13:44:24;;;;;;;1.13;0.20;;;12.60;53.60;;;;;;5097143;28;20443;-73
2021/04/12 13:47:08;;;;;;;2.03;0.22;;;12.60;53.70;;;;;;5096982;28;20051;-74
2021/04/12 13:49:51;;;;;;;1.17;0.10;;;12.70;53.80;;;;;;5097691;28;20044;-73
2021/04/12 13:52:22;;;;;;;1.02;0.20;;;12.70;53.80;;;;;;5097477;28;20094;-72
2021/04/12 13:54:59;;;;;;;1.00;0.13;;;12.70;53.90;;;;;;5097750;28;20093;-73
2021/04/12 13:57:29;;;;;;;0.80;0.30;;;12.70;53.90;;;;;;5097105;28;20043;-76
2021/04/12 14:00:05;;;;;;;0.77;0.15;;;12.70;54.00;;;;;;5097275;28;20044;-75
2021/04/12 14:02:38;;;;;;;1.67;0.25;;;12.70;54.20;;;;;;5097823;28;20086;-73
2021/04/12 14:05:23;;;;;;;1.58;0.20;;;12.70;54.20;;;;;;5079626;28;20048;-74
2021/04/12 14:07:55;;;;;;;1.38;0.20;;;12.70;54.30;;;;;;5097088;28;20043;-73
2021/04/12 14:10:24;;;;;;;2.90;0.40;;;12.70;54.40;;;;;;5097771;28;20763;-74
2021/04/12 14:12:52;;;;;;;1.88;0.30;;;12.70;54.40;;;;;;5097125;28;20051;-76
2021/04/12 14:15:49;;;;;;;1.38;0.28;;;12.70;54.60;;;;;;5097295;28;20436;-74
2021/04/12 14:18:43;;;;;;;1.25;0.17;;;12.70;54.70;;;;;;5097194;28;20043;-74
2021/04/12 14:21:12;;;;;;;;;;;12.70;54.70;;;;;;5096637;28;20109;-73
2021/04/12 14:23:59;;;;;;;1.00;0.10;;;12.70;54.60;;;;;;5096973;28;19923;-72
2021/04/12 14:26:39;;;;;;;1.73;0.20;;;12.70;54.90;;;;;;5097026;28;20039;-73